Time;durP1;ratioP1;P1;durP2;ratioP2;P2;SDS_P1;SDS_P2;PMS_P1;PMS_P2;Temp;Humidity;BMP_temperature;BMP_pressure;BME280_temperature;BME280_humidity;BME280_pressure;Samples;Min_cycle;Max_cycle;Signal;HPM_P1;HPM_P2
2021/06/25 00:01:18;;;;;;;18.53;16.90;;;20.40;1.00;;;;;;5070649;28;20545;-65
2021/06/25 00:03:43;;;;;;;18.77;16.90;;;20.30;1.00;;;;;;5071294;28;20199;-65
2021/06/25 00:06:09;;;;;;;18.43;16.73;;;20.30;1.00;;;;;;5070102;28;20859;-64
2021/06/25 00:08:34;;;;;;;17.93;16.10;;;20.30;1.00;;;;;;5070895;28;20723;-65
2021/06/25 00:11:00;;;;;;;16.40;14.90;;;20.30;1.00;;;;;;5071266;28;20180;-66
2021/06/25 00:13:26;;;;;;;17.13;15.70;;;20.30;1.00;;;;;;5071159;28;20235;-64
2021/06/25 00:15:51;;;;;;;18.13;16.17;;;20.40;1.00;;;;;;5070945;28;20180;-65
2021/06/25 00:18:17;;;;;;;20.80;17.97;;;20.50;1.00;;;;;;5071382;28;20183;-65
2021/06/25 00:20:43;;;;;;;18.47;16.60;;;20.40;1.00;;;;;;5068558;28;20202;-64
2021/06/25 00:23:08;;;;;;;19.87;17.53;;;20.40;1.00;;;;;;5071161;28;20681;-64
2021/06/25 00:25:34;;;;;;;18.20;16.60;;;20.30;1.00;;;;;;5070467;28;20180;-64
2021/06/25 00:27:59;;;;;;;22.13;17.33;;;20.30;1.00;;;;;;5071219;28;20241;-65
2021/06/25 00:30:25;;;;;;;18.00;16.50;;;20.20;1.00;;;;;;5067800;28;20230;-65
2021/06/25 00:32:50;;;;;;;21.77;19.53;;;20.30;1.00;;;;;;5069770;28;20202;-65
2021/06/25 00:35:16;;;;;;;17.77;16.20;;;20.30;1.00;;;;;;5070852;28;20549;-65
2021/06/25 00:37:43;;;;;;;19.80;17.97;;;20.20;1.00;;;;;;5071155;28;20286;-64
2021/06/25 00:40:10;;;;;;;18.80;16.93;;;20.10;1.00;;;;;;5070774;28;20267;-64
2021/06/25 00:42:36;;;;;;;18.40;16.90;;;20.10;1.00;;;;;;5070404;28;20466;-64
2021/06/25 00:45:15;;;;;;;18.70;16.87;;;20.20;1.00;;;;;;5071076;28;20491;-64
2021/06/25 00:47:48;;;;;;;19.63;17.73;;;20.20;1.00;;;;;;5069169;28;20278;-64
2021/06/25 00:50:20;;;;;;;19.97;18.00;;;20.20;1.00;;;;;;5069968;28;20433;-64
2021/06/25 00:52:49;;;;;;;20.33;18.17;;;20.10;1.00;;;;;;5068979;28;20416;-64
2021/06/25 00:55:14;;;;;;;18.33;16.53;;;20.10;1.00;;;;;;5070462;28;20431;-64
2021/06/25 00:57:40;;;;;;;20.57;18.50;;;20.20;1.00;;;;;;5070644;28;20440;-64
2021/06/25 01:00:07;;;;;;;19.47;17.70;;;20.30;1.00;;;;;;5069173;28;20536;-64
2021/06/25 01:02:33;;;;;;;18.37;16.30;;;20.30;1.00;;;;;;5069914;28;20680;-64
2021/06/25 01:04:59;;;;;;;22.30;18.23;;;20.20;1.00;;;;;;5069999;28;20438;-64
2021/06/25 01:07:26;;;;;;;18.53;16.47;;;20.20;1.00;;;;;;5069979;28;20480;-64
2021/06/25 01:09:52;;;;;;;18.77;16.93;;;20.10;1.00;;;;;;5069989;28;20434;-66
2021/06/25 01:12:18;;;;;;;19.47;17.67;;;20.20;1.00;;;;;;5070146;28;20492;-64
2021/06/25 01:14:43;;;;;;;19.00;17.00;;;20.20;1.00;;;;;;5070108;28;20529;-63
2021/06/25 01:17:38;;;;;;;18.50;16.67;;;20.10;1.00;;;;;;5070223;28;20186;-64
2021/06/25 01:20:07;;;;;;;20.20;18.40;;;20.10;1.00;;;;;;5068767;28;20187;-64
2021/06/25 01:22:38;;;;;;;20.77;17.90;;;20.10;1.00;;;;;;5069780;28;20433;-63
2021/06/25 01:25:12;;;;;;;20.30;18.40;;;20.20;1.00;;;;;;5070023;28;20433;-64
2021/06/25 01:27:38;;;;;;;20.03;18.00;;;20.20;1.00;;;;;;5070042;28;20432;-64
2021/06/25 01:30:08;;;;;;;20.13;18.23;;;20.10;1.00;;;;;;5069645;28;20494;-64
2021/06/25 01:32:34;;;;;;;20.67;18.57;;;20.20;1.00;;;;;;5069943;28;20476;-65
2021/06/25 01:35:01;;;;;;;21.63;18.40;;;20.10;1.00;;;;;;5069834;28;20437;-65
2021/06/25 01:37:28;;;;;;;19.50;17.47;;;20.10;1.00;;;;;;5070005;28;20441;-65
2021/06/25 01:39:54;;;;;;;19.10;17.40;;;20.20;1.00;;;;;;5068357;28;20471;-64
2021/06/25 01:42:19;;;;;;;19.53;17.47;;;20.10;1.00;;;;;;5069939;28;20479;-64
2021/06/25 01:44:46;;;;;;;19.73;17.73;;;20.00;1.00;;;;;;5069543;28;20502;-64
2021/06/25 01:47:15;;;;;;;20.30;18.20;;;20.00;1.00;;;;;;5069926;28;20187;-64
2021/06/25 01:49:40;;;;;;;19.10;17.30;;;20.00;1.00;;;;;;5067907;28;20575;-64
2021/06/25 01:52:06;;;;;;;19.47;17.53;;;19.90;1.00;;;;;;5069935;28;20529;-64
2021/06/25 01:54:32;;;;;;;19.70;17.83;;;19.90;1.00;;;;;;5070262;28;20188;-64
2021/06/25 01:56:57;;;;;;;20.13;17.43;;;19.80;1.00;;;;;;5069863;28;20187;-64
2021/06/25 01:59:23;;;;;;;21.83;18.07;;;19.80;1.00;;;;;;5069547;28;20245;-64
2021/06/25 02:01:48;;;;;;;19.17;17.17;;;19.80;1.00;;;;;;5068422;28;20184;-64
2021/06/25 02:04:14;;;;;;;19.40;17.60;;;19.80;1.00;;;;;;5068812;28;20281;-64
2021/06/25 02:06:40;;;;;;;18.40;16.40;;;20.20;1.00;;;;;;5069487;28;20194;-64
2021/06/25 02:09:05;;;;;;;18.77;17.17;;;19.90;1.00;;;;;;5069115;28;20187;-64
2021/06/25 02:11:31;;;;;;;18.03;16.33;;;19.80;1.00;;;;;;5068068;28;20199;-64
2021/06/25 02:13:56;;;;;;;18.03;16.23;;;19.60;1.00;;;;;;5068194;28;20240;-63
2021/06/25 02:16:22;;;;;;;20.77;18.53;;;19.70;1.00;;;;;;5069025;28;20590;-64
2021/06/25 02:18:48;;;;;;;20.73;18.63;;;19.80;1.00;;;;;;5069511;28;20237;-64
2021/06/25 02:21:14;;;;;;;19.90;17.87;;;19.70;1.00;;;;;;5069692;28;20699;-64
2021/06/25 02:23:39;;;;;;;20.17;18.17;;;19.60;1.00;;;;;;5069550;28;20275;-64
2021/06/25 02:26:05;;;;;;;20.70;18.60;;;19.60;1.00;;;;;;5069574;28;20517;-64
2021/06/25 02:28:31;;;;;;;21.43;19.30;;;19.50;1.00;;;;;;5069998;28;20215;-63
2021/06/25 02:30:58;;;;;;;20.50;18.40;;;19.30;1.00;;;;;;5073206;28;20663;-64
2021/06/25 02:33:24;;;;;;;18.10;16.30;;;19.30;1.00;;;;;;5071730;28;20429;-64
2021/06/25 02:35:50;;;;;;;20.60;18.50;;;19.30;1.00;;;;;;5072416;28;20439;-64
2021/06/25 02:38:15;;;;;;;23.87;19.20;;;19.40;1.00;;;;;;5073011;28;20955;-64
2021/06/25 02:40:41;;;;;;;21.90;19.40;;;19.50;1.00;;;;;;5072441;28;20543;-64
2021/06/25 02:43:07;;;;;;;21.87;19.60;;;19.50;1.00;;;;;;5073162;28;20195;-64
2021/06/25 02:45:33;;;;;;;21.50;19.40;;;21.10;1.00;;;;;;5072581;28;20561;-64
2021/06/25 02:47:58;;;;;;;21.20;19.23;;;19.60;1.00;;;;;;5072813;28;20203;-63
2021/06/25 02:50:24;;;;;;;20.97;18.90;;;19.50;1.00;;;;;;5072493;28;20514;-64
2021/06/25 02:52:49;;;;;;;21.43;19.20;;;19.40;1.00;;;;;;5072662;28;20533;-63
2021/06/25 02:55:16;;;;;;;22.30;19.80;;;19.30;1.00;;;;;;5071145;28;20188;-64
2021/06/25 02:57:41;;;;;;;22.10;19.80;;;19.40;1.00;;;;;;5072562;28;20218;-64
2021/06/25 03:00:10;;;;;;;21.40;17.83;;;19.50;1.00;;;;;;5072716;28;20484;-64
2021/06/25 03:02:36;;;;;;;21.60;19.40;;;19.50;1.00;;;;;;5068824;28;20445;-64
2021/06/25 03:05:03;;;;;;;19.47;17.53;;;19.50;1.00;;;;;;5072355;28;20440;-64
2021/06/25 03:07:28;;;;;;;19.77;17.77;;;19.40;1.00;;;;;;5072473;28;20798;-63
2021/06/25 03:09:54;;;;;;;19.23;17.43;;;19.30;1.00;;;;;;5071749;28;20540;-64
2021/06/25 03:12:19;;;;;;;20.07;17.97;;;19.40;1.00;;;;;;5072242;28;20177;-63
2021/06/25 03:14:45;;;;;;;20.93;18.70;;;19.40;1.00;;;;;;5071031;28;20556;-63
2021/06/25 03:17:11;;;;;;;19.63;17.73;;;19.30;1.00;;;;;;5072954;28;20176;-62
2021/06/25 03:19:36;;;;;;;19.73;17.83;;;19.30;1.00;;;;;;5072280;28;20190;-64
2021/06/25 03:22:03;;;;;;;18.93;16.90;;;19.30;1.00;;;;;;5072622;28;20211;-63
2021/06/25 03:24:28;;;;;;;18.80;17.20;;;19.40;1.00;;;;;;5071866;28;20695;-63
2021/06/25 03:26:54;;;;;;;19.37;17.37;;;19.50;1.00;;;;;;5072324;28;20490;-63
2021/06/25 03:29:19;;;;;;;19.97;17.97;;;19.50;1.00;;;;;;5071826;28;20220;-64
2021/06/25 03:31:45;;;;;;;17.20;15.50;;;19.60;1.00;;;;;;5071993;28;20175;-64
2021/06/25 03:34:11;;;;;;;18.30;16.50;;;19.60;1.00;;;;;;5071350;28;20653;-63
2021/06/25 03:36:36;;;;;;;18.43;16.73;;;19.60;1.00;;;;;;5071829;28;20272;-64
2021/06/25 03:39:04;;;;;;;16.27;14.87;;;19.60;1.00;;;;;;5071689;28;20696;-64
2021/06/25 03:41:29;;;;;;;17.33;15.57;;;19.60;1.00;;;;;;5071096;28;20187;-64
2021/06/25 03:43:55;;;;;;;18.27;16.53;;;19.60;1.00;;;;;;5072016;28;20973;-63
2021/06/25 03:46:22;;;;;;;17.70;16.10;;;19.60;1.00;;;;;;5071242;28;20183;-63
2021/06/25 03:48:48;;;;;;;18.60;16.70;;;19.60;1.00;;;;;;5071052;28;20183;-63
2021/06/25 03:51:13;;;;;;;18.27;16.57;;;19.60;1.00;;;;;;5071980;28;20433;-63
2021/06/25 03:53:39;;;;;;;16.97;15.27;;;19.50;1.00;;;;;;5071337;28;20273;-63
2021/06/25 03:56:11;;;;;;;18.40;16.70;;;22.10;5.30;;;;;;5070460;28;20195;-63
2021/06/25 03:58:50;;;;;;;15.03;13.70;;;19.60;4.60;;;;;;5071390;28;20175;-63
2021/06/25 04:01:19;;;;;;;15.67;14.17;;;19.60;1.00;;;;;;5071110;28;20856;-65
2021/06/25 04:03:44;;;;;;;16.10;14.47;;;19.50;4.70;;;;;;5070596;28;20481;-64
2021/06/25 04:06:10;;;;;;;18.23;16.63;;;19.50;4.20;;;;;;5070740;28;20420;-65
2021/06/25 04:08:36;;;;;;;19.43;17.37;;;19.60;10.30;;;;;;5069537;28;20206;-65
2021/06/25 04:11:03;;;;;;;18.97;16.70;;;19.40;9.70;;;;;;5070960;28;20207;-65
2021/06/25 04:13:30;;;;;;;18.43;16.63;;;19.30;14.90;;;;;;5071009;28;20421;-65
2021/06/25 04:15:56;;;;;;;16.63;15.13;;;19.40;37.50;;;;;;5071297;28;20424;-65
2021/06/25 04:18:23;;;;;;;17.57;15.97;;;19.30;46.80;;;;;;5070387;28;20438;-65
2021/06/25 04:20:50;;;;;;;17.40;15.80;;;19.10;49.80;;;;;;5070594;28;20445;-65
2021/06/25 04:23:16;;;;;;;18.33;16.63;;;18.90;97.60;;;;;;5069177;28;20485;-64
2021/06/25 04:25:42;;;;;;;17.97;16.17;;;18.90;99.90;;;;;;5071005;28;20459;-64
2021/06/25 04:28:08;;;;;;;14.77;13.23;;;19.00;99.90;;;;;;5070324;28;20447;-64
2021/06/25 04:30:35;;;;;;;16.03;14.53;;;19.10;99.90;;;;;;5069104;28;20814;-62
2021/06/25 04:33:02;;;;;;;15.43;14.03;;;19.10;99.90;;;;;;5070702;28;20266;-64
2021/06/25 04:35:28;;;;;;;14.10;12.77;;;19.00;99.90;;;;;;5070060;28;20445;-64
2021/06/25 04:37:54;;;;;;;15.10;13.60;;;19.00;99.90;;;;;;5070404;28;20452;-64
2021/06/25 04:40:20;;;;;;;13.60;12.30;;;18.80;99.90;;;;;;5069384;28;20847;-64
2021/06/25 04:42:46;;;;;;;12.80;11.60;;;18.60;99.90;;;;;;5070148;28;20206;-64
2021/06/25 04:45:13;;;;;;;12.50;11.40;;;18.50;99.90;;;;;;5070220;28;20183;-63
2021/06/25 04:47:43;;;;;;;12.90;11.90;;;18.50;99.90;;;;;;5069773;28;20441;-65
2021/06/25 04:50:09;;;;;;;12.07;11.00;;;18.60;99.90;;;;;;5070183;28;20559;-64
2021/06/25 04:52:35;;;;;;;14.30;12.80;;;18.70;99.90;;;;;;5068490;28;20490;-64
2021/06/25 04:55:00;;;;;;;12.67;11.37;;;18.70;99.90;;;;;;5070599;28;20911;-64
2021/06/25 04:57:27;;;;;;;14.87;13.47;;;18.70;99.90;;;;;;5065356;28;20183;-63
2021/06/25 04:59:52;;;;;;;15.20;13.53;;;18.70;99.90;;;;;;5069859;28;20178;-63
2021/06/25 05:02:18;;;;;;;12.93;11.63;;;18.70;99.90;;;;;;5068508;28;20802;-62
2021/06/25 05:04:43;;;;;;;11.67;10.57;;;18.80;99.90;;;;;;5067890;28;20215;-63
2021/06/25 05:07:09;;;;;;;12.60;11.40;;;18.90;99.90;;;;;;5070432;28;20534;-62
2021/06/25 05:09:34;;;;;;;11.90;10.90;;;18.90;99.90;;;;;;5069652;28;20189;-63
2021/06/25 05:12:00;;;;;;;10.40;9.50;;;18.90;99.90;;;;;;5070340;28;20408;-62
2021/06/25 05:14:25;;;;;;;11.07;10.03;;;19.00;99.90;;;;;;5069934;28;20213;-62
2021/06/25 05:16:51;;;;;;;10.50;9.60;;;19.10;99.90;;;;;;5069962;28;20241;-63
2021/06/25 05:19:17;;;;;;;9.80;8.83;;;19.00;99.90;;;;;;5069517;28;20645;-62
2021/06/25 05:21:43;;;;;;;9.70;8.90;;;19.10;99.90;;;;;;5069268;28;20212;-62
2021/06/25 05:24:09;;;;;;;10.37;9.50;;;19.00;99.90;;;;;;5069001;28;20497;-62
2021/06/25 05:26:34;;;;;;;9.17;8.30;;;19.00;99.90;;;;;;5069730;28;20191;-63
2021/06/25 05:29:00;;;;;;;9.63;8.60;;;19.00;99.90;;;;;;5067385;28;20567;-62
2021/06/25 05:31:26;;;;;;;9.43;8.63;;;18.90;99.90;;;;;;5069277;28;20219;-63
2021/06/25 05:33:52;;;;;;;11.10;10.03;;;19.00;99.90;;;;;;5068257;28;20499;-62
2021/06/25 05:36:17;;;;;;;9.73;8.87;;;19.00;99.90;;;;;;5067987;28;20182;-60
2021/06/25 05:38:43;;;;;;;9.57;8.60;;;19.20;99.90;;;;;;5069408;28;20530;-60
2021/06/25 05:41:09;;;;;;;10.50;9.50;;;19.20;99.90;;;;;;5068820;28;20214;-60
2021/06/25 05:43:34;;;;;;;10.13;9.23;;;19.30;99.90;;;;;;5069917;28;20600;-60
2021/06/25 05:46:00;;;;;;;10.43;9.43;;;19.30;99.90;;;;;;5069175;28;20451;-60
2021/06/25 05:48:26;;;;;;;10.40;9.50;;;19.40;99.90;;;;;;5069283;28;20258;-60
2021/06/25 05:50:52;;;;;;;9.10;8.30;;;19.50;99.90;;;;;;5068730;28;20473;-61
2021/06/25 05:53:18;;;;;;;9.20;8.50;;;19.50;99.90;;;;;;5068398;28;20484;-59
2021/06/25 05:55:43;;;;;;;8.43;7.73;;;19.40;99.90;;;;;;5069244;28;20215;-59
2021/06/25 05:58:10;;;;;;;9.03;8.23;;;19.60;99.90;;;;;;5069497;28;20183;-61
2021/06/25 06:00:35;;;;;;;8.80;7.90;;;19.70;99.90;;;;;;5068995;28;20278;-59
2021/06/25 06:03:01;;;;;;;8.73;8.03;;;19.70;99.90;;;;;;5069473;28;20545;-61
2021/06/25 06:05:26;;;;;;;8.47;7.77;;;19.80;99.90;;;;;;5072831;28;20191;-61
2021/06/25 06:07:52;;;;;;;7.97;7.37;;;19.90;99.90;;;;;;5072672;28;20176;-60
2021/06/25 06:10:18;;;;;;;8.43;7.73;;;20.00;99.90;;;;;;5073363;28;20195;-60
2021/06/25 06:12:45;;;;;;;8.27;7.47;;;19.90;99.90;;;;;;5073287;28;20179;-59
2021/06/25 06:15:11;;;;;;;8.00;7.30;;;20.10;99.90;;;;;;5072142;28;20595;-60
2021/06/25 06:17:42;;;;;;;8.80;7.90;;;20.10;99.90;;;;;;5073082;28;20495;-59
2021/06/25 06:20:11;;;;;;;8.37;7.60;;;20.20;99.90;;;;;;5072849;28;20429;-61
2021/06/25 06:38:50;;;;;;;10.00;9.20;;;20.20;99.90;;;;;;5072779;28;20437;-60
2021/06/25 06:41:16;;;;;;;9.27;8.57;;;20.10;99.90;;;;;;5072377;28;20441;-61
2021/06/25 06:43:43;;;;;;;10.87;9.97;;;20.10;99.90;;;;;;5072074;28;20461;-59
2021/06/25 06:46:10;;;;;;;10.10;9.30;;;20.10;99.90;;;;;;5072882;28;20430;-61
2021/06/25 06:48:44;;;;;;;10.53;9.63;;;20.20;99.90;;;;;;5071534;28;20942;-60
2021/06/25 06:51:09;;;;;;;11.67;10.67;;;20.20;99.90;;;;;;5071636;28;20544;-60
2021/06/25 06:53:35;;;;;;;11.10;10.10;;;20.20;99.90;;;;;;5071857;28;20540;-60
2021/06/25 06:56:01;;;;;;;11.83;10.83;;;20.10;99.90;;;;;;5072301;28;20477;-59
2021/06/25 06:58:27;;;;;;;12.90;11.73;;;20.00;99.90;;;;;;5072057;28;20187;-60
2021/06/25 07:00:54;;;;;;;12.10;11.00;;;19.90;99.90;;;;;;5071639;28;20417;-60
2021/06/25 07:03:19;;;;;;;11.43;10.43;;;19.90;99.90;;;;;;5071994;28;20445;-60
2021/06/25 07:05:45;;;;;;;12.17;11.07;;;20.00;99.90;;;;;;5071639;28;20449;-59
2021/06/25 07:08:11;;;;;;;14.07;12.80;;;20.10;99.90;;;;;;5072284;28;20648;-61
2021/06/25 07:10:36;;;;;;;15.30;13.73;;;19.90;99.90;;;;;;5071850;28;20188;-59
2021/06/25 07:13:02;;;;;;;14.07;12.77;;;19.90;99.90;;;;;;5072046;28;20222;-59
2021/06/25 07:15:27;;;;;;;13.30;12.20;;;19.80;99.90;;;;;;5071243;28;20188;-60
2021/06/25 07:17:53;;;;;;;14.97;13.33;;;19.80;99.90;;;;;;5071675;28;20180;-59
2021/06/25 07:20:18;;;;;;;14.07;12.87;;;19.80;99.90;;;;;;5071694;28;20241;-60
2021/06/25 07:22:44;;;;;;;14.67;13.37;;;19.70;99.90;;;;;;5071088;28;20191;-63
2021/06/25 07:25:10;;;;;;;14.27;13.00;;;19.80;99.90;;;;;;5070029;28;20177;-58
2021/06/25 07:27:36;;;;;;;16.13;14.70;;;19.80;99.90;;;;;;5071773;28;20175;-59
2021/06/25 07:30:04;;;;;;;16.37;14.97;;;19.80;99.90;;;;;;5071813;28;20510;-62
2021/06/25 07:32:30;;;;;;;15.20;13.70;;;19.80;99.90;;;;;;5071644;28;20179;-60
2021/06/25 07:34:56;;;;;;;18.10;16.47;;;19.80;99.90;;;;;;5071389;28;20444;-61
2021/06/25 07:37:22;;;;;;;17.97;16.37;;;19.90;99.90;;;;;;5071477;28;20864;-60
2021/06/25 07:39:47;;;;;;;16.30;14.80;;;19.70;99.90;;;;;;5071211;28;20470;-60
2021/06/25 07:42:13;;;;;;;17.63;15.93;;;19.80;99.90;;;;;;5070092;28;20469;-59
2021/06/25 07:44:39;;;;;;;19.67;17.87;;;19.60;99.90;;;;;;5071395;28;20551;-60
2021/06/25 07:47:04;;;;;;;18.93;16.97;;;19.70;99.90;;;;;;5071370;28;20175;-60
2021/06/25 07:49:30;;;;;;;18.63;16.80;;;19.70;99.90;;;;;;5071641;28;20183;-58
2021/06/25 07:51:55;;;;;;;19.97;18.07;;;19.80;99.90;;;;;;5071015;28;20183;-60
2021/06/25 07:54:21;;;;;;;21.70;19.70;;;19.90;99.90;;;;;;5071075;28;20676;-61
2021/06/25 07:56:47;;;;;;;21.73;19.57;;;20.10;99.90;;;;;;5070897;28;20656;-60
2021/06/25 07:59:12;;;;;;;19.97;18.03;;;19.90;99.90;;;;;;5070067;28;20175;-62
2021/06/25 08:01:38;;;;;;;21.90;19.63;;;20.10;99.90;;;;;;5070879;28;20416;-61
2021/06/25 08:04:03;;;;;;;21.50;19.30;;;20.00;99.90;;;;;;5070127;28;20214;-62
2021/06/25 08:06:29;;;;;;;20.60;18.60;;;20.20;99.90;;;;;;5070934;28;20274;-61
2021/06/25 08:08:55;;;;;;;22.10;19.90;;;20.20;99.90;;;;;;5070972;28;20229;-63
2021/06/25 08:11:21;;;;;;;20.97;18.87;;;20.30;99.90;;;;;;5070725;28;20183;-62
2021/06/25 08:13:46;;;;;;;20.50;18.50;;;20.30;99.90;;;;;;5070525;28;20420;-60
2021/06/25 08:16:12;;;;;;;20.70;18.80;;;20.40;99.90;;;;;;5070772;28;20207;-61
2021/06/25 08:18:38;;;;;;;20.10;18.20;;;20.40;99.90;;;;;;5070502;28;20183;-61
2021/06/25 08:21:04;;;;;;;20.30;18.40;;;20.50;99.90;;;;;;5071126;28;20951;-61
2021/06/25 08:23:29;;;;;;;22.03;19.80;;;20.50;99.90;;;;;;5071357;28;20272;-62
2021/06/25 08:25:55;;;;;;;21.63;19.30;;;20.60;99.60;;;;;;5069476;28;20594;-61
2021/06/25 08:28:21;;;;;;;21.60;19.63;;;20.70;92.60;;;;;;5070381;28;20371;-63
2021/06/25 08:30:46;;;;;;;20.70;18.83;;;20.80;73.20;;;;;;5071016;28;20664;-63
2021/06/25 08:33:12;;;;;;;20.40;18.60;;;20.80;57.30;;;;;;5070970;28;20193;-63
2021/06/25 08:35:37;;;;;;;21.70;19.53;;;21.00;41.30;;;;;;5071044;28;20222;-63
2021/06/25 08:38:03;;;;;;;20.80;18.60;;;21.00;40.90;;;;;;5069646;28;20190;-62
2021/06/25 08:40:28;;;;;;;21.30;19.17;;;23.10;12.30;;;;;;5069562;28;20206;-63
2021/06/25 08:42:54;;;;;;;22.37;20.27;;;21.20;18.10;;;;;;5069684;28;20673;-63
2021/06/25 08:45:19;;;;;;;21.70;19.50;;;21.10;5.10;;;;;;5070537;28;20186;-61
2021/06/25 08:47:50;;;;;;;22.43;20.17;;;21.20;17.50;;;;;;5070914;28;20259;-61
2021/06/25 08:50:18;;;;;;;21.60;19.70;;;21.50;8.10;;;;;;5069424;28;20634;-61
2021/06/25 08:52:46;;;;;;;22.23;20.03;;;21.40;1.00;;;;;;5068955;28;20469;-64
2021/06/25 08:55:13;;;;;;;20.70;18.70;;;21.40;2.90;;;;;;5070740;28;20514;-61
2021/06/25 08:57:39;;;;;;;19.87;18.17;;;21.70;1.00;;;;;;5069038;28;20489;-64
2021/06/25 09:00:07;;;;;;;20.30;18.40;;;22.00;1.00;;;;;;5070490;28;20930;-63
2021/06/25 09:02:35;;;;;;;20.17;18.17;;;21.90;1.00;;;;;;5069030;28;20213;-62
2021/06/25 09:05:02;;;;;;;12.20;11.10;;;22.20;1.00;;;;;;5069022;28;20449;-62
2021/06/25 09:07:42;;;;;;;11.70;10.70;;;22.10;1.00;;;;;;5066652;28;20925;-62
2021/06/25 09:10:09;;;;;;;14.17;12.90;;;21.90;1.00;;;;;;5070575;28;20807;-61
2021/06/25 09:12:35;;;;;;;13.60;12.33;;;21.80;1.00;;;;;;5069919;28;20437;-61
2021/06/25 09:15:08;;;;;;;13.57;12.40;;;21.70;1.00;;;;;;5069173;28;20478;-60
2021/06/25 09:17:51;;;;;;;14.43;12.97;;;22.00;1.00;;;;;;5070305;28;20196;-61
2021/06/25 09:20:40;;;;;;;14.67;13.17;;;22.30;1.00;;;;;;5070484;28;20512;-63
2021/06/25 09:23:21;;;;;;;15.20;13.90;;;22.80;1.00;;;;;;5070211;28;20569;-62
2021/06/25 09:26:06;;;;;;;15.73;14.23;;;23.30;1.00;;;;;;5070051;28;20428;-61
2021/06/25 09:29:08;;;;;;;14.80;13.37;;;23.70;1.00;;;;;;5070064;28;20427;-63
2021/06/25 09:31:33;;;;;;;13.90;12.70;;;23.70;1.00;;;;;;5070163;28;20432;-61
2021/06/25 09:33:59;;;;;;;14.80;13.47;;;23.80;1.00;;;;;;5070067;28;20453;-63
2021/06/25 09:36:26;;;;;;;16.30;14.67;;;23.80;1.00;;;;;;5068173;28;20313;-62
2021/06/25 09:39:07;;;;;;;17.33;15.77;;;23.90;1.00;;;;;;5073167;28;20180;-62
2021/06/25 09:41:33;;;;;;;19.20;17.30;;;23.80;1.00;;;;;;5074084;28;20415;-61
2021/06/25 09:44:01;;;;;;;18.13;15.90;;;23.80;1.00;;;;;;5073715;28;20973;-61
2021/06/25 09:46:35;;;;;;;17.60;16.10;;;24.00;1.00;;;;;;5073903;28;20440;-62
2021/06/25 09:49:04;;;;;;;16.47;14.97;;;24.40;1.00;;;;;;5073744;28;20408;-60
2021/06/25 09:51:30;;;;;;;15.40;14.03;;;24.60;1.00;;;;;;5074156;28;21002;-61
2021/06/25 09:54:08;;;;;;;15.40;14.00;;;24.70;1.00;;;;;;5073135;28;20982;-62
2021/06/25 09:56:38;;;;;;;15.73;14.30;;;25.00;1.00;;;;;;5072493;28;20449;-60
2021/06/25 09:59:40;;;;;;;15.63;14.20;;;25.40;1.00;;;;;;5073766;28;20466;-60
2021/06/25 10:02:17;;;;;;;15.50;14.20;;;25.60;1.00;;;;;;5073739;28;20479;-61
2021/06/25 10:04:45;;;;;;;14.27;13.13;;;25.60;1.00;;;;;;5073365;28;20444;-61
2021/06/25 10:07:25;;;;;;;14.20;12.90;;;25.50;1.00;;;;;;5073116;28;21743;-63
2021/06/25 10:09:52;;;;;;;13.37;12.27;;;25.60;1.00;;;;;;5072954;28;20429;-63
2021/06/25 10:12:20;;;;;;;14.27;13.20;;;25.70;1.00;;;;;;5071415;28;20419;-61
2021/06/25 10:14:47;;;;;;;13.13;11.90;;;25.80;1.00;;;;;;5072223;28;20872;-61
2021/06/25 10:17:14;;;;;;;12.70;11.50;;;25.70;1.00;;;;;;5072920;28;20451;-61
2021/06/25 10:19:45;;;;;;;11.43;10.53;;;25.80;1.00;;;;;;5073459;28;20472;-62
2021/06/25 10:22:13;;;;;;;11.23;9.90;;;26.00;1.00;;;;;;5072721;28;20495;-62
2021/06/25 10:24:40;;;;;;;10.80;9.70;;;26.20;1.00;;;;;;5072951;28;20484;-61
2021/06/25 10:27:08;;;;;;;11.33;10.43;;;26.40;1.00;;;;;;5072712;28;20503;-62
2021/06/25 10:29:35;;;;;;;10.23;9.40;;;26.40;1.00;;;;;;5072793;28;20443;-62
2021/06/25 10:32:03;;;;;;;10.23;9.23;;;26.50;1.00;;;;;;5071467;28;20450;-61
2021/06/25 10:34:33;;;;;;;10.30;9.50;;;26.60;1.00;;;;;;5071506;28;20917;-62
2021/06/25 10:37:02;;;;;;;9.23;8.53;;;26.40;1.00;;;;;;5072017;28;20477;-62
2021/06/25 10:39:31;;;;;;;9.07;8.30;;;25.80;1.00;;;;;;5071941;28;20436;-64
2021/06/25 10:41:58;;;;;;;7.87;7.07;;;25.50;1.00;;;;;;5071564;28;20420;-61
2021/06/25 10:44:30;;;;;;;5.87;5.37;;;25.30;1.00;;;;;;5071898;28;20950;-63
2021/06/25 10:47:11;;;;;;;6.77;5.77;;;25.10;1.00;;;;;;5072400;28;20503;-61
2021/06/25 10:49:57;;;;;;;6.70;6.20;;;24.50;1.00;;;;;;5070788;28;20465;-61
2021/06/25 10:52:22;;;;;;;5.60;5.00;;;24.00;1.00;;;;;;5071383;28;20449;-62
2021/06/25 10:55:24;;;;;;;6.27;5.77;;;23.60;1.00;;;;;;5072522;28;20468;-61
2021/06/25 10:57:49;;;;;;;6.37;5.77;;;23.20;1.00;;;;;;5055850;28;20229;-61
2021/06/25 11:00:38;;;;;;;6.13;5.63;;;23.30;1.00;;;;;;5071957;28;20465;-61
2021/06/25 11:03:04;;;;;;;5.97;5.37;;;23.20;1.00;;;;;;5071458;28;20199;-61
2021/06/25 11:05:30;;;;;;;7.10;6.50;;;23.20;1.00;;;;;;5072009;28;20437;-63
2021/06/25 11:08:00;;;;;;;7.93;7.13;;;23.10;1.00;;;;;;5070428;28;20428;-62
2021/06/25 11:10:27;;;;;;;6.70;6.10;;;23.20;1.00;;;;;;5071984;28;20644;-60
2021/06/25 11:13:11;;;;;;;6.87;6.27;;;23.20;1.00;;;;;;5072089;28;20433;-61
2021/06/25 11:15:37;;;;;;;6.87;6.37;;;23.10;1.00;;;;;;5072191;28;20437;-63
2021/06/25 11:18:24;;;;;;;6.80;6.10;;;23.10;1.00;;;;;;5071136;28;20434;-62
2021/06/25 11:20:53;;;;;;;5.77;5.27;;;23.40;1.00;;;;;;5071019;28;20416;-63
2021/06/25 11:23:22;;;;;;;7.50;6.90;;;23.60;1.00;;;;;;5072059;28;20487;-62
2021/06/25 11:25:53;;;;;;;6.70;6.17;;;23.90;1.00;;;;;;5071581;28;20449;-63
2021/06/25 11:28:24;;;;;;;7.43;6.30;;;24.20;1.00;;;;;;5071536;28;20491;-62
2021/06/25 11:31:14;;;;;;;7.00;6.30;;;24.40;1.00;;;;;;5071978;28;20445;-63
2021/06/25 11:34:07;;;;;;;6.93;6.43;;;24.60;1.00;;;;;;5070994;28;20444;-62
2021/06/25 11:36:46;;;;;;;6.50;6.00;;;24.70;1.00;;;;;;5071496;28;20411;-62
2021/06/25 11:39:48;;;;;;;6.13;5.73;;;24.80;1.00;;;;;;5070029;28;20441;-63
2021/06/25 11:42:15;;;;;;;6.33;5.83;;;25.10;1.00;;;;;;5029179;28;20420;-61
2021/06/25 11:44:44;;;;;;;5.60;5.20;;;25.20;1.00;;;;;;5070935;28;20683;-63
2021/06/25 11:47:30;;;;;;;6.37;5.87;;;25.50;1.00;;;;;;5070110;28;20444;-63
2021/06/25 11:50:02;;;;;;;7.83;7.00;;;25.90;1.00;;;;;;5070967;28;20465;-63
2021/06/25 11:52:33;;;;;;;6.63;6.03;;;26.20;1.00;;;;;;5068023;28;20441;-61
2021/06/25 11:55:09;;;;;;;6.03;5.60;;;26.70;1.00;;;;;;5070501;28;20412;-62
2021/06/25 11:57:36;;;;;;;7.27;6.77;;;26.90;1.00;;;;;;5069732;28;20452;-62
2021/06/25 12:00:05;;;;;;;6.73;6.13;;;27.20;1.00;;;;;;5070977;28;20428;-62
2021/06/25 12:02:58;;;;;;;7.60;7.00;;;27.20;1.00;;;;;;5070713;28;20486;-63
2021/06/25 12:05:29;;;;;;;7.00;6.30;;;26.60;1.00;;;;;;5067478;28;20429;-63
2021/06/25 12:08:05;;;;;;;6.50;6.00;;;26.40;1.00;;;;;;5070518;28;20416;-63
2021/06/25 12:10:31;;;;;;;7.00;6.30;;;26.20;1.00;;;;;;5070889;28;20567;-63
2021/06/25 12:12:58;;;;;;;6.43;5.90;;;26.30;1.00;;;;;;5070354;28;20483;-61
2021/06/25 12:15:25;;;;;;;6.03;5.63;;;26.10;1.00;;;;;;5070967;28;20461;-63
2021/06/25 12:17:53;;;;;;;6.60;6.10;;;26.10;1.00;;;;;;5070334;28;20441;-62
2021/06/25 12:20:20;;;;;;;5.93;5.43;;;26.50;1.00;;;;;;5070473;28;20526;-61
2021/06/25 12:23:02;;;;;;;6.40;6.00;;;26.80;1.00;;;;;;5070281;28;21031;-61
2021/06/25 12:25:31;;;;;;;6.33;5.83;;;27.10;1.00;;;;;;5070769;28;20468;-61
2021/06/25 12:27:57;;;;;;;6.10;5.60;;;27.40;1.00;;;;;;5069326;28;20525;-62
2021/06/25 12:30:24;;;;;;;6.60;6.10;;;27.60;1.00;;;;;;5068691;28;21493;-61
2021/06/25 12:33:05;;;;;;;5.97;5.37;;;27.50;1.00;;;;;;5069643;28;20791;-60
2021/06/25 12:35:36;;;;;;;5.80;5.40;;;27.20;1.00;;;;;;5070550;28;20764;-60
2021/06/25 12:38:06;;;;;;;6.57;6.00;;;26.80;1.00;;;;;;5069099;28;20471;-61
2021/06/25 12:40:36;;;;;;;6.73;6.23;;;26.80;1.00;;;;;;5070515;28;20416;-61
2021/06/25 12:43:02;;;;;;;6.33;5.83;;;26.80;1.00;;;;;;5070105;28;20461;-62
2021/06/25 12:45:41;;;;;;;6.87;6.30;;;26.90;1.00;;;;;;5069331;28;20936;-61
2021/06/25 12:48:27;;;;;;;7.90;5.93;;;26.90;1.00;;;;;;5070107;28;20495;-60
2021/06/25 12:51:04;;;;;;;5.83;5.33;;;26.70;1.00;;;;;;5068470;28;20480;-60
2021/06/25 12:53:32;;;;;;;5.50;5.10;;;26.50;1.00;;;;;;5070218;28;20415;-60
2021/06/25 12:56:06;;;;;;;5.50;5.00;;;26.60;1.00;;;;;;5068301;28;20428;-60
2021/06/25 12:58:36;;;;;;;6.00;5.50;;;26.40;1.00;;;;;;5069617;28;20470;-60
2021/06/25 13:01:04;;;;;;;6.00;5.50;;;26.00;1.00;;;;;;5069583;28;20416;-60